Time;durP1;ratioP1;P1;durP2;ratioP2;P2;SDS_P1;SDS_P2;PMS_P1;PMS_P2;Temp;Humidity;BMP_temperature;BMP_pressure;BME280_temperature;BME280_humidity;BME280_pressure;Samples;Min_cycle;Max_cycle;Signal;HPM_P1;HPM_P2
2023/02/07 00:02:04;;;;;;;3.77;3.07;;;;;;;;;;6287208;28;20567;-81
2023/02/07 00:05:13;;;;;;;5.43;3.20;;;;;;;;;;6287184;28;20614;-80
2023/02/07 00:08:21;;;;;;;3.60;3.30;;;;;;;;;;6285033;28;20290;-79
2023/02/07 00:11:26;;;;;;;3.70;3.40;;;;;;;;;;6292276;28;20459;-80
2023/02/07 00:14:33;;;;;;;4.27;3.40;;;;;;;;;;6311545;28;20318;-80
2023/02/07 00:17:39;;;;;;;8.47;3.93;;;;;;;;;;6311002;28;20321;-80
2023/02/07 00:20:45;;;;;;;3.90;3.60;;;;;;;;;;6310391;28;20629;-81
2023/02/07 00:23:53;;;;;;;3.80;3.60;;;;;;;;;;6310329;28;20301;-81
2023/02/07 00:27:00;;;;;;;9.93;4.23;;;;;;;;;;6311045;28;20314;-81
2023/02/07 00:30:08;;;;;;;6.53;4.13;;;;;;;;;;6311275;28;20469;-80
2023/02/07 00:33:14;;;;;;;5.03;3.93;;;;;;;;;;6310761;28;20290;-80
2023/02/07 00:36:23;;;;;;;5.20;4.47;;;;;;;;;;6293989;28;20297;-80
2023/02/07 00:39:28;;;;;;;6.07;4.50;;;;;;;;;;6309440;28;20296;-80
2023/02/07 00:42:35;;;;;;;10.27;5.00;;;;;;;;;;6310603;28;20290;-81
2023/02/07 00:45:44;;;;;;;9.17;4.70;;;;;;;;;;6309862;28;20454;-80
2023/02/07 00:48:53;;;;;;;5.80;4.80;;;;;;;;;;6309514;28;20609;-80
2023/02/07 00:52:00;;;;;;;10.20;4.90;;;;;;;;;;6310605;28;20291;-80
2023/02/07 00:55:06;;;;;;;8.77;5.93;;;;;;;;;;6311884;28;20301;-80
2023/02/07 00:58:12;;;;;;;7.17;5.67;;;;;;;;;;6309566;28;20300;-81
2023/02/07 01:01:20;;;;;;;7.63;5.50;;;;;;;;;;6312854;28;20294;-80
2023/02/07 01:04:25;;;;;;;5.43;4.93;;;;;;;;;;6311367;28;20293;-79
2023/02/07 01:07:31;;;;;;;9.03;5.30;;;;;;;;;;6310447;28;20301;-80
2023/02/07 01:10:36;;;;;;;7.13;4.93;;;;;;;;;;6301582;28;20299;-79
2023/02/07 01:13:44;;;;;;;6.23;5.00;;;;;;;;;;6309294;28;20297;-81
2023/02/07 01:17:00;;;;;;;7.30;5.43;;;;;;;;;;6310008;28;20269;-80
2023/02/07 01:20:06;;;;;;;11.17;5.47;;;;;;;;;;6308758;28;20296;-80
2023/02/07 01:23:14;;;;;;;6.93;5.00;;;;;;;;;;6309872;28;20293;-81
2023/02/07 01:26:21;;;;;;;10.80;5.90;;;;;;;;;;6310647;28;20299;-80
2023/02/07 01:29:28;;;;;;;11.00;6.00;;;;;;;;;;6309023;28;20462;-80
2023/02/07 01:32:36;;;;;;;10.83;6.60;;;;;;;;;;6309893;28;20563;-81
2023/02/07 01:35:45;;;;;;;13.33;5.63;;;;;;;;;;6310095;28;20296;-80
2023/02/07 01:38:53;;;;;;;13.77;6.00;;;;;;;;;;6308295;28;20297;-81
2023/02/07 01:41:59;;;;;;;14.17;6.03;;;;;;;;;;6309220;28;20595;-80
2023/02/07 01:45:21;;;;;;;14.90;6.53;;;;;;;;;;6308373;28;20588;-80
2023/02/07 01:48:31;;;;;;;13.23;6.10;;;;;;;;;;6308885;28;20290;-80
2023/02/07 01:51:38;;;;;;;13.77;6.23;;;;;;;;;;6311075;28;20290;-80
2023/02/07 01:54:47;;;;;;;14.27;6.57;;;;;;;;;;6311218;28;20311;-81
2023/02/07 01:57:53;;;;;;;12.10;6.47;;;;;;;;;;6308723;28;20307;-81
2023/02/07 02:00:59;;;;;;;10.00;6.20;;;;;;;;;;6309952;28;20313;-80
2023/02/07 02:04:06;;;;;;;13.50;6.93;;;;;;;;;;6272927;22;20300;-79
2023/02/07 02:07:13;;;;;;;14.07;6.37;;;;;;;;;;6242022;28;20296;-78
2023/02/07 02:10:23;;;;;;;17.27;7.00;;;;;;;;;;6258827;28;20293;-78
2023/02/07 02:13:32;;;;;;;13.13;6.93;;;;;;;;;;6259592;28;20292;-79
2023/02/07 02:16:42;;;;;;;18.63;6.43;;;;;;;;;;6258838;28;20295;-79
2023/02/07 02:20:09;;;;;;;17.10;6.33;;;;;;;;;;6250491;28;20299;-79
2023/02/07 02:23:20;;;;;;;15.00;6.43;;;;;;;;;;6217107;28;20292;-79
2023/02/07 02:26:49;;;;;;;13.37;6.50;;;;;;;;;;6217564;28;20297;-79
2023/02/07 02:30:15;;;;;;;14.77;6.27;;;;;;;;;;6233908;28;20596;-78
2023/02/07 02:33:34;;;;;;;14.97;6.53;;;;;;;;;;6233864;28;20294;-80
2023/02/07 02:36:45;;;;;;;11.33;5.87;;;;;;;;;;6235642;28;20568;-78
2023/02/07 02:39:54;;;;;;;14.07;6.13;;;;;;;;;;6234687;28;20298;-79
2023/02/07 02:43:06;;;;;;;16.90;6.43;;;;;;;;;;6234607;28;20292;-78
2023/02/07 02:46:14;;;;;;;13.37;5.47;;;;;;;;;;6235285;28;20290;-79
2023/02/07 02:49:23;;;;;;;11.53;6.20;;;;;;;;;;6235209;28;20297;-79
2023/02/07 02:52:29;;;;;;;15.67;6.27;;;;;;;;;;6237447;28;20307;-79
2023/02/07 02:56:30;;;;;;;13.17;5.87;;;;;;;;;;6237091;28;20284;-79
2023/02/07 02:59:47;;;;;;;11.17;6.23;;;;;;;;;;6238991;28;20302;-79
2023/02/07 03:03:05;;;;;;;18.47;6.60;;;;;;;;;;6236700;28;20307;-79
2023/02/07 03:06:23;;;;;;;15.30;5.60;;;;;;;;;;6237770;28;20292;-79
2023/02/07 03:09:38;;;;;;;12.27;5.93;;;;;;;;;;6237398;28;20306;-79
2023/02/07 03:12:48;;;;;;;22.30;6.87;;;;;;;;;;6237209;28;20629;-79
2023/02/07 03:16:03;;;;;;;16.40;6.00;;;;;;;;;;6237324;28;20299;-79
2023/02/07 03:19:12;;;;;;;16.20;5.97;;;;;;;;;;6253358;28;20296;-79
2023/02/07 03:22:23;;;;;;;13.67;5.90;;;;;;;;;;6237388;28;20292;-78
2023/02/07 03:25:29;;;;;;;10.43;6.20;;;;;;;;;;6236937;28;20300;-79
2023/02/07 03:28:36;;;;;;;19.07;6.40;;;;;;;;;;6236687;28;20292;-78
2023/02/07 03:31:44;;;;;;;13.27;6.07;;;;;;;;;;6238199;28;20305;-78
2023/02/07 03:34:52;;;;;;;9.43;5.80;;;;;;;;;;6237503;28;20300;-78
2023/02/07 03:38:00;;;;;;;14.40;5.93;;;;;;;;;;6252451;28;20300;-78
2023/02/07 03:41:10;;;;;;;15.67;7.50;;;;;;;;;;6238188;28;20283;-78
2023/02/07 03:44:16;;;;;;;11.13;6.17;;;;;;;;;;6237442;28;20582;-79
2023/02/07 03:47:22;;;;;;;10.23;6.03;;;;;;;;;;6238517;28;20377;-79
2023/02/07 03:50:27;;;;;;;20.20;6.27;;;;;;;;;;6240844;28;20297;-78
2023/02/07 03:53:34;;;;;;;15.40;6.00;;;;;;;;;;6240384;28;20295;-79
2023/02/07 03:56:39;;;;;;;19.57;6.90;;;;;;;;;;6240587;28;20294;-79
2023/02/07 03:59:44;;;;;;;18.33;6.20;;;;;;;;;;6237016;28;20292;-79
2023/02/07 04:02:52;;;;;;;15.93;6.30;;;;;;;;;;6243044;28;20575;-79
2023/02/07 04:05:56;;;;;;;18.70;6.67;;;;;;;;;;6240728;28;20292;-79
2023/02/07 04:09:03;;;;;;;15.30;5.80;;;;;;;;;;6236793;28;20292;-79
2023/02/07 04:12:11;;;;;;;18.43;6.60;;;;;;;;;;6238913;28;20351;-79
2023/02/07 04:15:16;;;;;;;11.47;5.50;;;;;;;;;;6236815;28;20295;-79
2023/02/07 04:18:22;;;;;;;17.13;5.93;;;;;;;;;;6235953;28;20293;-79
2023/02/07 04:21:27;;;;;;;12.47;5.87;;;;;;;;;;6261858;28;20293;-78
2023/02/07 04:24:34;;;;;;;12.83;5.57;;;;;;;;;;6261431;28;20296;-79
2023/02/07 04:27:40;;;;;;;12.50;5.97;;;;;;;;;;6261977;28;20290;-79
2023/02/07 04:30:45;;;;;;;12.00;5.63;;;;;;;;;;6259394;28;20298;-79
2023/02/07 04:33:50;;;;;;;16.37;6.00;;;;;;;;;;6260772;28;20517;-79
2023/02/07 04:36:56;;;;;;;12.43;6.10;;;;;;;;;;6248633;28;20289;-79
2023/02/07 04:40:02;;;;;;;18.67;5.90;;;;;;;;;;6236207;28;20307;-79
2023/02/07 04:43:08;;;;;;;12.77;5.20;;;;;;;;;;6234688;28;20292;-78
2023/02/07 04:46:14;;;;;;;10.37;5.43;;;;;;;;;;6236453;28;20290;-79
2023/02/07 04:49:19;;;;;;;14.20;5.77;;;;;;;;;;6235961;28;20611;-79
2023/02/07 04:52:24;;;;;;;12.43;5.67;;;;;;;;;;6236632;28;20326;-79
2023/02/07 04:55:33;;;;;;;10.07;5.17;;;;;;;;;;6236195;28;20584;-79
2023/02/07 04:58:38;;;;;;;17.53;5.37;;;;;;;;;;6235331;28;20473;-79
2023/02/07 05:01:44;;;;;;;12.57;5.23;;;;;;;;;;6236246;28;20583;-78
2023/02/07 05:04:48;;;;;;;14.23;5.40;;;;;;;;;;6235556;28;20297;-78
2023/02/07 05:07:54;;;;;;;12.37;5.10;;;;;;;;;;6234738;28;20270;-79
2023/02/07 05:11:01;;;;;;;14.83;5.07;;;;;;;;;;6238825;28;20289;-78
2023/02/07 05:14:06;;;;;;;12.33;4.93;;;;;;;;;;6234998;28;20605;-78
2023/02/07 05:17:15;;;;;;;14.20;4.87;;;;;;;;;;6235967;28;20296;-78
2023/02/07 05:20:20;;;;;;;14.67;5.00;;;;;;;;;;6233948;28;20298;-77
2023/02/07 05:23:25;;;;;;;10.33;4.67;;;;;;;;;;6236331;28;20473;-78
2023/02/07 05:26:32;;;;;;;12.17;5.13;;;;;;;;;;6236732;28;20289;-78
2023/02/07 05:29:37;;;;;;;12.93;4.53;;;;;;;;;;6233774;28;20286;-79
2023/02/07 05:36:06;;;;;;;17.90;4.97;;;;;;;;;;6233459;28;20589;-79
2023/02/07 05:39:12;;;;;;;12.40;4.03;;;;;;;;;;6234009;28;20296;-79
2023/02/07 05:42:18;;;;;;;9.70;4.47;;;;;;;;;;6235205;28;20288;-79
2023/02/07 05:45:23;;;;;;;13.70;4.47;;;;;;;;;;6234839;28;20307;-78
2023/02/07 05:48:29;;;;;;;12.30;4.00;;;;;;;;;;6217669;28;20477;-79
2023/02/07 05:51:34;;;;;;;12.57;4.20;;;;;;;;;;6235608;28;20312;-79
2023/02/07 05:54:39;;;;;;;8.13;3.90;;;;;;;;;;6234971;28;20307;-79
2023/02/07 05:57:46;;;;;;;13.13;4.53;;;;;;;;;;6235245;28;20309;-79
2023/02/07 06:00:51;;;;;;;7.50;5.00;;;;;;;;;;6234991;28;20307;-78
2023/02/07 06:04:00;;;;;;;9.20;4.00;;;;;;;;;;6217362;28;20492;-79
2023/02/07 06:07:07;;;;;;;6.83;3.90;;;;;;;;;;6235572;28;20572;-79
2023/02/07 06:10:13;;;;;;;11.53;4.50;;;;;;;;;;6236844;28;20290;-78
2023/02/07 06:13:20;;;;;;;14.73;4.57;;;;;;;;;;6234928;28;20296;-79
2023/02/07 06:16:25;;;;;;;7.97;4.27;;;;;;;;;;6235770;28;20311;-77
2023/02/07 06:19:30;;;;;;;7.40;4.33;;;;;;;;;;6234884;28;20306;-80
2023/02/07 06:22:35;;;;;;;13.83;3.93;;;;;;;;;;6235492;28;20295;-78
2023/02/07 06:25:41;;;;;;;15.67;3.90;;;;;;;;;;6237818;28;20310;-78
2023/02/07 06:28:48;;;;;;;11.83;3.60;;;;;;;;;;6238916;28;20296;-78
2023/02/07 06:31:53;;;;;;;9.70;4.40;;;;;;;;;;6238282;28;20294;-79
2023/02/07 06:34:58;;;;;;;9.50;3.87;;;;;;;;;;6239254;28;20300;-78
2023/02/07 06:38:04;;;;;;;13.47;3.83;;;;;;;;;;6238883;28;20299;-78
2023/02/07 06:41:10;;;;;;;8.27;4.00;;;;;;;;;;6239197;28;20271;-79
2023/02/07 06:44:17;;;;;;;11.50;4.17;;;;;;;;;;6237468;28;20294;-78
2023/02/07 06:47:23;;;;;;;8.67;4.07;;;;;;;;;;6222160;28;20295;-79
2023/02/07 06:50:28;;;;;;;8.33;3.93;;;;;;;;;;6238984;28;20284;-78
2023/02/07 06:53:35;;;;;;;7.27;3.93;;;;;;;;;;6237560;28;20288;-79
2023/02/07 06:56:41;;;;;;;8.73;3.93;;;;;;;;;;6238995;28;20296;-79
2023/02/07 06:59:47;;;;;;;8.93;4.47;;;;;;;;;;6239016;28;20596;-79
2023/02/07 07:02:53;;;;;;;12.93;3.97;;;;;;;;;;6238446;28;20300;-78
2023/02/07 07:05:58;;;;;;;8.20;4.30;;;;;;;;;;6238119;28;20323;-78
2023/02/07 07:09:03;;;;;;;7.30;3.40;;;;;;;;;;6237162;28;20502;-78
2023/02/07 07:12:12;;;;;;;10.83;3.97;;;;;;;;;;6242455;28;20295;-79
2023/02/07 07:15:19;;;;;;;10.53;3.83;;;;;;;;;;6238108;28;20477;-78
2023/02/07 07:18:24;;;;;;;9.43;4.13;;;;;;;;;;6238714;28;20302;-79
2023/02/07 07:21:29;;;;;;;14.70;4.50;;;;;;;;;;6238946;28;20302;-80
2023/02/07 07:24:35;;;;;;;8.17;4.10;;;;;;;;;;6238076;28;20454;-79
2023/02/07 07:27:40;;;;;;;11.93;3.83;;;;;;;;;;6238156;28;20614;-79
2023/02/07 07:30:47;;;;;;;14.77;4.73;;;;;;;;;;6228842;28;20356;-80
2023/02/07 07:33:53;;;;;;;4.17;3.40;;;;;;;;;;6237640;28;20478;-78
2023/02/07 07:36:59;;;;;;;10.20;4.30;;;;;;;;;;6237858;28;20292;-79
2023/02/07 07:40:05;;;;;;;12.57;3.90;;;;;;;;;;6220449;28;20305;-80
2023/02/07 07:43:12;;;;;;;9.87;4.53;;;;;;;;;;6219773;28;20292;-78
2023/02/07 07:46:24;;;;;;;9.90;4.17;;;;;;;;;;6213159;28;20295;-78
2023/02/07 07:49:30;;;;;;;10.07;4.63;;;;;;;;;;6214780;28;20570;-79
2023/02/07 07:52:35;;;;;;;8.77;4.40;;;;;;;;;;6214014;28;20295;-78
2023/02/07 07:55:40;;;;;;;11.17;4.30;;;;;;;;;;6213558;28;20297;-79
2023/02/07 07:58:47;;;;;;;8.33;3.80;;;;;;;;;;6213660;28;20303;-80
2023/02/07 08:01:53;;;;;;;7.40;4.17;;;;;;;;;;6217096;28;20288;-78
2023/02/07 08:04:59;;;;;;;9.10;3.73;;;;;;;;;;6220478;28;20298;-80
2023/02/07 08:08:04;;;;;;;10.70;3.90;;;;;;;;;;6235853;28;20272;-78
2023/02/07 08:11:10;;;;;;;8.93;4.20;;;;;;;;;;6237126;28;20268;-78
2023/02/07 08:14:15;;;;;;;9.60;4.07;;;;;;;;;;6236212;28;20295;-78
2023/02/07 08:17:22;;;;;;;15.63;4.23;;;;;;;;;;6231631;28;20291;-79
2023/02/07 08:20:27;;;;;;;7.93;3.60;;;;;;;;;;6212141;28;20491;-79
2023/02/07 08:23:34;;;;;;;11.17;4.23;;;;;;;;;;6212162;28;20303;-79
2023/02/07 08:26:39;;;;;;;23.27;4.33;;;;;;;;;;6212011;28;20364;-79
2023/02/07 08:29:45;;;;;;;12.13;4.40;;;;;;;;;;6210628;28;20297;-79
2023/02/07 08:32:54;;;;;;;9.67;4.37;;;;;;;;;;6211817;28;20304;-79
2023/02/07 08:35:59;;;;;;;10.87;3.93;;;;;;;;;;6212624;28;20297;-79
2023/02/07 08:39:04;;;;;;;8.60;4.00;;;;;;;;;;6194956;28;20340;-80
2023/02/07 08:42:10;;;;;;;11.20;3.80;;;;;;;;;;6212544;28;20599;-79
2023/02/07 08:45:16;;;;;;;18.70;4.40;;;;;;;;;;6210803;28;20584;-79
2023/02/07 08:48:23;;;;;;;6.87;4.03;;;;;;;;;;6210603;28;20312;-78
2023/02/07 08:51:28;;;;;;;9.80;4.00;;;;;;;;;;6211753;28;20309;-79
2023/02/07 08:54:35;;;;;;;8.77;3.97;;;;;;;;;;6211266;28;20304;-77
2023/02/07 08:57:40;;;;;;;7.23;3.97;;;;;;;;;;6212007;28;20467;-78
2023/02/07 09:00:46;;;;;;;9.93;4.03;;;;;;;;;;6211159;28;20302;-79
2023/02/07 09:03:57;;;;;;;11.30;4.00;;;;;;;;;;6211033;28;20458;-79
2023/02/07 09:07:02;;;;;;;8.03;3.87;;;;;;;;;;6211466;28;20292;-80
2023/02/07 09:10:10;;;;;;;6.50;3.63;;;;;;;;;;6216172;28;20299;-79
2023/02/07 09:13:16;;;;;;;7.57;3.90;;;;;;;;;;6235266;28;20463;-79
2023/02/07 09:16:22;;;;;;;6.87;3.53;;;;;;;;;;6236038;28;20304;-79
2023/02/07 09:19:28;;;;;;;9.27;3.37;;;;;;;;;;6235343;28;20295;-78
2023/02/07 09:23:16;;;;;;;9.33;3.80;;;;;;;;;;6236571;28;20296;-78
2023/02/07 09:26:02;;;;;;;9.53;3.60;;;;;;;;;;6234501;28;20308;-78
2023/02/07 09:29:10;;;;;;;6.73;3.57;;;;;;;;;;6235638;28;20591;-78
2023/02/07 09:32:15;;;;;;;8.03;4.13;;;;;;;;;;6236265;28;20296;-78
2023/02/07 09:35:21;;;;;;;7.93;3.50;;;;;;;;;;6243686;28;20543;-79
2023/02/07 09:38:27;;;;;;;11.97;3.40;;;;;;;;;;6222617;28;20296;-79
2023/02/07 09:41:40;;;;;;;4.57;3.57;;;;;;;;;;6219285;28;20291;-79
2023/02/07 09:44:53;;;;;;;4.23;3.53;;;;;;;;;;6235102;28;20296;-78
2023/02/07 09:48:02;;;;;;;10.47;3.77;;;;;;;;;;6234919;28;20299;-79
2023/02/07 09:51:12;;;;;;;5.90;4.60;;;;;;;;;;6218049;28;20311;-79
2023/02/07 09:54:23;;;;;;;6.60;3.63;;;;;;;;;;6234430;28;20299;-79
2023/02/07 09:57:36;;;;;;;11.43;3.57;;;;;;;;;;6235522;28;20292;-79
2023/02/07 10:00:43;;;;;;;4.83;3.63;;;;;;;;;;6222566;28;20303;-79
2023/02/07 10:03:55;;;;;;;10.50;3.70;;;;;;;;;;6239081;28;20299;-80
2023/02/07 10:07:06;;;;;;;7.73;3.77;;;;;;;;;;6240371;28;20330;-79
2023/02/07 10:10:16;;;;;;;7.40;3.83;;;;;;;;;;6226135;28;20282;-79
2023/02/07 10:13:29;;;;;;;4.30;3.87;;;;;;;;;;6239428;28;20294;-79
2023/02/07 10:16:51;;;;;;;3.97;3.57;;;;;;;;;;6239821;28;20304;-78
2023/02/07 10:20:04;;;;;;;5.73;3.77;;;;;;;;;;6197003;28;20297;-78
2023/02/07 10:23:27;;;;;;;7.87;4.07;;;;;;;;;;6215351;28;20470;-80
2023/02/07 10:26:37;;;;;;;3.70;3.37;;;;;;;;;;6215488;28;20289;-79
2023/02/07 10:29:50;;;;;;;3.83;3.53;;;;;;;;;;6215286;28;20300;-79
2023/02/07 10:33:01;;;;;;;7.53;4.07;;;;;;;;;;6215201;28;20305;-78
2023/02/07 10:36:13;;;;;;;5.73;3.33;;;;;;;;;;6215176;28;20376;-79
2023/02/07 10:39:24;;;;;;;5.17;4.30;;;;;;;;;;6215073;28;20300;-80
2023/02/07 10:42:33;;;;;;;9.17;4.47;;;;;;;;;;6214763;28;20311;-78
2023/02/07 10:45:40;;;;;;;7.70;4.00;;;;;;;;;;6214841;28;20306;-80
2023/02/07 10:48:45;;;;;;;13.03;4.70;;;;;;;;;;6214760;28;20298;-79
2023/02/07 10:51:53;;;;;;;7.87;4.23;;;;;;;;;;6214998;28;20460;-79
2023/02/07 10:55:02;;;;;;;9.53;4.30;;;;;;;;;;6213271;28;20311;-78
2023/02/07 10:58:11;;;;;;;9.20;4.10;;;;;;;;;;6214391;28;20309;-77
2023/02/07 11:01:28;;;;;;;13.03;4.70;;;;;;;;;;6213554;28;20288;-78
2023/02/07 11:04:38;;;;;;;7.67;4.37;;;;;;;;;;6212787;28;20366;-79
2023/02/07 11:07:57;;;;;;;8.17;4.47;;;;;;;;;;6214186;28;20291;-78
2023/02/07 11:11:28;;;;;;;11.53;4.90;;;;;;;;;;6212906;28;20293;-79
2023/02/07 11:14:33;;;;;;;9.03;4.70;;;;;;;;;;6214314;28;20329;-80
2023/02/07 11:17:43;;;;;;;10.37;4.30;;;;;;;;;;6215165;28;20467;-78
2023/02/07 11:20:57;;;;;;;8.23;4.43;;;;;;;;;;6213425;28;20594;-79
2023/02/07 11:24:04;;;;;;;10.17;4.70;;;;;;;;;;6213899;28;20309;-79
2023/02/07 11:27:15;;;;;;;11.67;4.70;;;;;;;;;;6212903;28;20319;-79
2023/02/07 11:30:22;;;;;;;7.23;4.30;;;;;;;;;;6213873;28;20351;-79
2023/02/07 11:33:28;;;;;;;7.90;4.67;;;;;;;;;;6214117;28;20289;-79
2023/02/07 11:36:34;;;;;;;10.60;4.77;;;;;;;;;;6213916;28;20573;-79
2023/02/07 11:39:41;;;;;;;9.27;4.73;;;;;;;;;;6213397;28;20284;-80
2023/02/07 11:42:49;;;;;;;11.37;4.77;;;;;;;;;;6214101;28;20337;-78
2023/02/07 11:46:00;;;;;;;11.57;5.50;;;;;;;;;;6212439;28;20300;-80
2023/02/07 11:49:10;;;;;;;12.87;4.90;;;;;;;;;;6212130;28;20293;-80
2023/02/07 11:52:15;;;;;;;7.93;4.93;;;;;;;;;;6213552;28;20313;-79
2023/02/07 11:55:23;;;;;;;6.50;5.03;;;;;;;;;;6212927;28;20312;-79
2023/02/07 11:58:35;;;;;;;8.33;5.17;;;;;;;;;;6211870;28;20298;-79
2023/02/07 12:01:40;;;;;;;6.00;5.33;;;;;;;;;;6213497;28;20297;-79
2023/02/07 12:04:45;;;;;;;8.60;4.87;;;;;;;;;;6237122;28;20585;-80
2023/02/07 12:07:52;;;;;;;9.93;5.23;;;;;;;;;;6236922;28;20620;-79
2023/02/07 12:10:59;;;;;;;12.03;5.30;;;;;;;;;;6236088;28;20276;-82
2023/02/07 12:14:12;;;;;;;10.80;4.90;;;;;;;;;;6236356;28;20503;-82
2023/02/07 12:17:21;;;;;;;9.60;5.10;;;;;;;;;;6220326;28;20292;-82
2023/02/07 12:20:30;;;;;;;12.33;5.30;;;;;;;;;;6236934;28;20296;-78
2023/02/07 12:23:41;;;;;;;11.73;5.30;;;;;;;;;;6236590;28;20291;-78
2023/02/07 12:26:52;;;;;;;9.33;5.40;;;;;;;;;;6237269;28;20293;-79
2023/02/07 12:30:02;;;;;;;7.97;4.90;;;;;;;;;;6236398;28;20300;-79
2023/02/07 12:33:13;;;;;;;6.47;4.90;;;;;;;;;;6235513;28;20295;-79
2023/02/07 12:36:25;;;;;;;9.70;4.93;;;;;;;;;;6237010;28;20300;-80
2023/02/07 12:39:35;;;;;;;9.50;5.13;;;;;;;;;;6236335;28;20295;-80
2023/02/07 12:42:42;;;;;;;6.77;5.10;;;;;;;;;;6236945;28;20580;-80
2023/02/07 12:46:03;;;;;;;8.57;5.37;;;;;;;;;;6218752;28;20303;-80
2023/02/07 12:49:31;;;;;;;13.57;5.73;;;;;;;;;;6236475;28;20296;-82
2023/02/07 12:52:46;;;;;;;7.20;5.00;;;;;;;;;;6233766;28;20431;-80
2023/02/07 12:55:59;;;;;;;12.80;5.57;;;;;;;;;;6219956;28;20287;-79
2023/02/07 12:59:11;;;;;;;12.13;6.17;;;;;;;;;;6238153;28;20301;-82
2023/02/07 13:02:33;;;;;;;10.47;5.57;;;;;;;;;;6215329;28;20296;-79
2023/02/07 13:05:57;;;;;;;14.43;5.57;;;;;;;;;;6195710;28;20301;-79
2023/02/07 13:09:10;;;;;;;8.80;5.63;;;;;;;;;;6210910;28;20301;-79
2023/02/07 13:12:18;;;;;;;9.47;5.70;;;;;;;;;;6214260;28;20305;-78
2023/02/07 13:15:30;;;;;;;11.13;5.73;;;;;;;;;;6211812;28;20303;-77
2023/02/07 13:18:45;;;;;;;11.33;6.17;;;;;;;;;;6212631;28;20294;-79
2023/02/07 13:21:54;;;;;;;16.00;6.60;;;;;;;;;;6220200;28;20294;-79
2023/02/07 13:25:00;;;;;;;12.47;6.20;;;;;;;;;;6202127;28;20301;-79
2023/02/07 13:28:08;;;;;;;11.97;6.63;;;;;;;;;;6216947;28;20304;-78
2023/02/07 13:31:17;;;;;;;11.97;5.83;;;;;;;;;;6217052;28;20292;-78
2023/02/07 13:34:25;;;;;;;19.33;7.00;;;;;;;;;;6214738;28;20304;-77
2023/02/07 13:37:38;;;;;;;19.47;6.50;;;;;;;;;;6211859;28;20308;-78
2023/02/07 13:40:50;;;;;;;17.57;6.27;;;;;;;;;;6210496;28;20308;-77
2023/02/07 13:44:04;;;;;;;11.53;6.63;;;;;;;;;;6154107;28;20251;-78
2023/02/07 13:47:34;;;;;;;18.60;6.87;;;;;;;;;;6210186;28;20480;-78
2023/02/07 13:50:46;;;;;;;14.70;6.03;;;;;;;;;;6210758;28;20304;-79
2023/02/07 13:53:56;;;;;;;19.40;6.43;;;;;;;;;;6210691;28;20300;-79
2023/02/07 14:00:26;;;;;;;13.90;6.00;;;;;;;;;;6210483;28;20304;-81
2023/02/07 14:03:33;;;;;;;12.13;5.70;;;;;;;;;;6225603;28;20307;-79
2023/02/07 14:06:41;;;;;;;20.63;6.60;;;;;;;;;;6217981;28;20295;-79
2023/02/07 14:09:48;;;;;;;13.33;6.50;;;;;;;;;;6237182;28;20294;-78
2023/02/07 14:13:01;;;;;;;10.27;6.27;;;;;;;;;;6194331;28;20294;-78
2023/02/07 14:16:09;;;;;;;15.43;6.63;;;;;;;;;;6193375;28;20477;-78
2023/02/07 14:19:16;;;;;;;12.93;7.60;;;;;;;;;;6210347;28;20300;-78
2023/02/07 14:22:25;;;;;;;11.67;6.53;;;;;;;;;;6193507;28;20284;-78
2023/02/07 14:25:39;;;;;;;12.90;6.20;;;;;;;;;;6210774;28;20298;-79
2023/02/07 14:28:45;;;;;;;18.93;6.80;;;;;;;;;;6210451;28;20254;-79
2023/02/07 14:31:53;;;;;;;13.63;6.90;;;;;;;;;;6210597;28;20301;-79
2023/02/07 14:35:02;;;;;;;16.20;6.70;;;;;;;;;;6209301;28;20296;-79
2023/02/07 14:38:22;;;;;;;16.37;6.37;;;;;;;;;;6208853;28;20308;-79
2023/02/07 14:41:30;;;;;;;18.50;6.50;;;;;;;;;;6210479;28;20292;-79
2023/02/07 14:44:36;;;;;;;11.30;6.33;;;;;;;;;;6210317;28;20308;-79
2023/02/07 14:47:42;;;;;;;12.67;6.07;;;;;;;;;;6197967;28;20301;-78
2023/02/07 14:50:52;;;;;;;14.50;6.43;;;;;;;;;;6213522;28;20302;-78
2023/02/07 14:54:03;;;;;;;12.00;6.10;;;;;;;;;;6214813;28;20600;-78
2023/02/07 14:57:17;;;;;;;22.73;6.77;;;;;;;;;;6215024;28;20296;-78
2023/02/07 15:00:34;;;;;;;17.23;6.90;;;;;;;;;;6214239;28;20318;-78
2023/02/07 15:03:39;;;;;;;12.83;6.17;;;;;;;;;;6180373;28;20308;-78
2023/02/07 15:06:46;;;;;;;14.33;6.97;;;;;;;;;;6215086;28;20559;-78
2023/02/07 15:09:52;;;;;;;13.47;6.67;;;;;;;;;;6202458;28;20297;-80
2023/02/07 15:12:58;;;;;;;14.67;7.10;;;;;;;;;;6214214;28;20304;-79
2023/02/07 15:16:06;;;;;;;18.27;7.50;;;;;;;;;;6216587;28;20299;-78
2023/02/07 15:19:18;;;;;;;16.90;7.10;;;;;;;;;;6223517;28;20294;-78
2023/02/07 15:22:26;;;;;;;21.93;7.73;;;;;;;;;;6223733;28;20261;-78
2023/02/07 15:25:33;;;;;;;11.70;6.50;;;;;;;;;;6217844;28;20293;-79
2023/02/07 15:28:38;;;;;;;20.30;6.70;;;;;;;;;;6213455;28;20296;-79
2023/02/07 15:31:44;;;;;;;14.43;6.80;;;;;;;;;;6214046;28;20295;-78
2023/02/07 15:34:49;;;;;;;11.90;5.93;;;;;;;;;;6213698;28;20298;-79
2023/02/07 15:37:55;;;;;;;13.03;5.33;;;;;;;;;;6195506;28;20291;-79
2023/02/07 15:41:02;;;;;;;13.97;5.53;;;;;;;;;;6213572;28;20277;-78
2023/02/07 15:44:19;;;;;;;21.70;5.77;;;;;;;;;;6213167;28;20308;-79
2023/02/07 15:47:36;;;;;;;20.77;5.93;;;;;;;;;;6213364;28;20301;-79
2023/02/07 15:50:41;;;;;;;17.77;5.37;;;;;;;;;;6212964;28;20296;-80
2023/02/07 15:53:50;;;;;;;14.17;5.00;;;;;;;;;;6213018;28;20293;-80
2023/02/07 15:56:59;;;;;;;13.57;5.13;;;;;;;;;;6212926;28;20567;-80
2023/02/07 16:00:07;;;;;;;20.80;4.93;;;;;;;;;;6212807;28;20293;-79
2023/02/07 16:03:21;;;;;;;8.50;4.30;;;;;;;;;;6187025;28;20301;-79
2023/02/07 16:06:27;;;;;;;18.20;5.17;;;;;;;;;;6188744;28;20304;-78
2023/02/07 16:09:40;;;;;;;9.80;4.40;;;;;;;;;;6188274;28;20299;-79
2023/02/07 16:12:51;;;;;;;13.77;5.00;;;;;;;;;;6214205;28;20297;-78
2023/02/07 16:15:58;;;;;;;14.33;4.67;;;;;;;;;;6211110;28;20289;-78
2023/02/07 16:19:12;;;;;;;11.00;4.50;;;;;;;;;;6194704;28;20302;-79
2023/02/07 16:22:21;;;;;;;10.97;4.20;;;;;;;;;;6212971;28;20296;-78
2023/02/07 16:25:29;;;;;;;11.37;4.03;;;;;;;;;;6212954;28;20311;-79
2023/02/07 16:28:36;;;;;;;15.73;4.60;;;;;;;;;;6211958;28;20304;-79
2023/02/07 16:31:41;;;;;;;7.97;4.03;;;;;;;;;;6212916;28;20307;-80
2023/02/07 16:34:47;;;;;;;7.53;3.80;;;;;;;;;;6212340;28;20489;-79
2023/02/07 16:38:03;;;;;;;11.57;4.33;;;;;;;;;;6210861;28;20300;-80
2023/02/07 16:41:23;;;;;;;11.77;4.03;;;;;;;;;;6212000;28;20281;-80
2023/02/07 16:44:31;;;;;;;11.77;4.13;;;;;;;;;;6211844;28;20294;-80
2023/02/07 16:47:43;;;;;;;12.10;4.30;;;;;;;;;;6211968;28;20297;-80
2023/02/07 16:50:49;;;;;;;9.03;4.20;;;;;;;;;;6212076;28;20322;-79
2023/02/07 16:53:54;;;;;;;11.60;4.10;;;;;;;;;;6212252;28;20475;-78
2023/02/07 16:57:05;;;;;;;8.63;3.53;;;;;;;;;;6212460;28;20296;-79
2023/02/07 17:00:18;;;;;;;10.63;4.20;;;;;;;;;;6210531;28;20305;-79
2023/02/07 17:03:24;;;;;;;12.13;4.40;;;;;;;;;;6225274;28;20299;-79
2023/02/07 17:06:30;;;;;;;4.57;3.57;;;;;;;;;;6236154;28;20293;-80
2023/02/07 17:09:36;;;;;;;12.93;7.37;;;;;;;;;;6218387;28;20477;-78
2023/02/07 17:12:42;;;;;;;8.60;3.90;;;;;;;;;;6237995;28;20363;-79
2023/02/07 17:15:48;;;;;;;8.60;3.97;;;;;;;;;;6210795;28;20294;-79
2023/02/07 17:18:54;;;;;;;8.13;3.90;;;;;;;;;;6209134;28;20613;-79
2023/02/07 17:22:02;;;;;;;10.10;3.47;;;;;;;;;;6212208;28;20294;-78
2023/02/07 17:25:08;;;;;;;9.43;3.80;;;;;;;;;;6211672;28;20310;-78
2023/02/07 17:28:15;;;;;;;7.87;3.63;;;;;;;;;;6210134;28;20297;-77
2023/02/07 17:31:23;;;;;;;13.80;4.20;;;;;;;;;;6211800;28;20306;-79
2023/02/07 17:34:28;;;;;;;9.40;3.80;;;;;;;;;;6211867;28;20296;-79
2023/02/07 17:37:34;;;;;;;9.70;3.83;;;;;;;;;;6210323;28;20304;-80
2023/02/07 17:40:40;;;;;;;11.80;3.70;;;;;;;;;;6211110;28;20296;-80
2023/02/07 17:43:45;;;;;;;7.17;3.70;;;;;;;;;;6210786;28;20470;-79
2023/02/07 17:46:52;;;;;;;22.20;8.23;;;;;;;;;;6211454;28;20296;-80
2023/02/07 17:49:57;;;;;;;10.30;3.43;;;;;;;;;;6209987;28;20299;-77
2023/02/07 17:53:03;;;;;;;9.17;4.00;;;;;;;;;;6209306;28;20463;-79
2023/02/07 17:56:17;;;;;;;12.60;3.33;;;;;;;;;;6209814;28;20435;-78
2023/02/07 17:59:26;;;;;;;9.40;3.50;;;;;;;;;;6209273;28;20298;-79
2023/02/07 18:02:34;;;;;;;16.00;3.70;;;;;;;;;;6210803;28;20305;-79
2023/02/07 18:05:42;;;;;;;9.90;4.07;;;;;;;;;;6183352;28;20480;-79
2023/02/07 18:08:48;;;;;;;16.60;4.17;;;;;;;;;;6234358;28;20301;-78
2023/02/07 18:11:55;;;;;;;10.67;3.80;;;;;;;;;;6212772;28;20341;-78
2023/02/07 18:15:02;;;;;;;10.73;3.70;;;;;;;;;;6219266;28;20476;-77
2023/02/07 18:18:09;;;;;;;11.43;3.30;;;;;;;;;;6208932;28;20320;-78
2023/02/07 18:21:34;;;;;;;19.33;3.80;;;;;;;;;;6215692;28;20304;-77
2023/02/07 18:24:39;;;;;;;12.63;3.97;;;;;;;;;;6213723;28;20303;-80
2023/02/07 18:27:45;;;;;;;9.53;3.57;;;;;;;;;;6214165;28;20477;-80
2023/02/07 18:31:01;;;;;;;11.43;3.60;;;;;;;;;;6189594;28;20315;-78
2023/02/07 18:34:08;;;;;;;9.77;3.93;;;;;;;;;;6213781;28;20312;-83
2023/02/07 18:37:14;;;;;;;10.00;3.40;;;;;;;;;;6210570;28;20296;-78
2023/02/07 18:40:19;;;;;;;8.30;3.30;;;;;;;;;;6213527;28;20304;-79
2023/02/07 18:43:24;;;;;;;11.23;3.67;;;;;;;;;;6213382;28;20604;-79
2023/02/07 18:46:30;;;;;;;10.20;3.53;;;;;;;;;;6215246;28;20286;-78
2023/02/07 18:49:37;;;;;;;11.87;4.13;;;;;;;;;;6214643;28;20295;-79